Time;durP1;ratioP1;P1;durP2;ratioP2;P2;SDS_P1;SDS_P2;PMS_P1;PMS_P2;Temp;Humidity;BMP_temperature;BMP_pressure;BME280_temperature;BME280_humidity;BME280_pressure;Samples;Min_cycle;Max_cycle;Signal;HPM_P1;HPM_P2
2022/07/24 00:00:39;;;;;;;19.13;12.82;;;;;;;17.49;100.00;101556.84;5093172;28;20158;-77
2022/07/24 00:03:05;;;;;;;18.75;12.70;;;;;;;17.53;100.00;101559.16;5092079;28;20036;-76
2022/07/24 00:05:34;;;;;;;17.60;12.13;;;;;;;17.58;100.00;101553.19;5072193;28;20093;-77
2022/07/24 00:07:59;;;;;;;15.02;10.93;;;;;;;17.64;100.00;101547.91;5085551;28;20398;-77
2022/07/24 00:10:25;;;;;;;19.90;11.30;;;;;;;17.72;100.00;101555.44;5071429;28;20042;-77
2022/07/24 00:12:50;;;;;;;17.65;10.18;;;;;;;17.80;100.00;101561.09;5092383;28;20035;-76
2022/07/24 00:15:16;;;;;;;15.45;10.30;;;;;;;17.85;100.00;101555.13;5073714;28;20406;-77
2022/07/24 00:17:42;;;;;;;15.77;9.75;;;;;;;17.91;100.00;101554.53;5091232;28;20032;-76
2022/07/24 00:20:08;;;;;;;12.38;9.88;;;;;;;17.91;100.00;101546.22;5058802;28;20442;-76
2022/07/24 00:22:34;;;;;;;16.58;10.40;;;;;;;17.95;100.00;101549.56;5069532;28;20083;-76
2022/07/24 00:24:59;;;;;;;15.57;9.57;;;;;;;18.02;100.00;101544.28;5071340;28;20036;-76
2022/07/24 00:27:25;;;;;;;15.77;9.57;;;;;;;18.10;100.00;101556.38;5071630;28;20032;-76
2022/07/24 00:29:50;;;;;;;12.25;8.35;;;;;;;18.09;100.00;101550.97;5073660;28;20048;-76
2022/07/24 00:32:16;;;;;;;14.15;9.27;;;;;;;18.08;100.00;101554.75;5074290;28;20048;-76
2022/07/24 00:34:41;;;;;;;15.43;8.82;;;;;;;18.14;100.00;101560.56;5072365;28;20047;-77
2022/07/24 00:37:07;;;;;;;11.77;9.02;;;;;;;18.06;100.00;101559.59;5089825;28;20036;-77
2022/07/24 00:39:32;;;;;;;12.30;9.45;;;;;;;18.02;100.00;101555.38;5073808;28;20118;-77
2022/07/24 00:41:58;;;;;;;12.32;9.15;;;;;;;18.01;100.00;101557.28;5073693;28;20044;-77
2022/07/24 00:44:24;;;;;;;12.60;10.10;;;;;;;17.95;100.00;101555.97;5057942;28;20053;-77
2022/07/24 00:46:49;;;;;;;13.02;9.38;;;;;;;18.02;100.00;101556.25;5053526;28;20037;-76
2022/07/24 00:49:18;;;;;;;14.13;10.50;;;;;;;18.08;100.00;101546.44;5088961;28;20441;-78
2022/07/24 00:51:47;;;;;;;16.23;10.38;;;;;;;18.12;100.00;101546.00;5073586;28;20036;-76
2022/07/24 00:54:14;;;;;;;16.00;10.90;;;;;;;18.04;100.00;101548.66;5064805;28;20028;-76
2022/07/24 00:56:45;;;;;;;13.38;10.63;;;;;;;18.07;100.00;101559.44;5051038;28;20028;-76
2022/07/24 00:59:11;;;;;;;15.60;10.73;;;;;;;18.09;100.00;101551.84;5056776;28;20029;-76
2022/07/24 01:01:37;;;;;;;15.27;10.88;;;;;;;18.07;100.00;101555.78;5063375;28;20044;-76
2022/07/24 01:04:02;;;;;;;17.63;10.57;;;;;;;18.00;100.00;101559.19;5095588;28;20052;-77
2022/07/24 01:06:28;;;;;;;15.10;10.07;;;;;;;17.90;100.00;101554.69;5076606;28;20040;-76
2022/07/24 01:08:54;;;;;;;16.08;11.10;;;;;;;17.85;100.00;101554.25;5059765;28;20137;-77
2022/07/24 01:11:21;;;;;;;15.75;10.48;;;;;;;17.75;100.00;101554.28;5074949;28;20118;-77
2022/07/24 01:13:49;;;;;;;18.08;11.68;;;;;;;17.91;100.00;101551.78;5076620;28;20040;-77
2022/07/24 01:16:15;;;;;;;21.55;10.63;;;;;;;17.88;100.00;101552.06;5059918;28;20051;-76
2022/07/24 01:18:40;;;;;;;17.80;10.55;;;;;;;17.85;100.00;101551.47;5074859;28;20114;-77
2022/07/24 01:21:07;;;;;;;12.43;9.85;;;;;;;17.76;100.00;101544.97;5095444;28;20020;-77
2022/07/24 01:23:33;;;;;;;14.20;11.40;;;;;;;17.77;100.00;101546.69;5092689;28;20080;-77
2022/07/24 01:25:59;;;;;;;22.10;11.35;;;;;;;17.82;100.00;101549.88;5076484;28;20039;-76
2022/07/24 01:28:25;;;;;;;20.25;11.90;;;;;;;17.80;100.00;101547.25;5076821;28;20040;-76
2022/07/24 01:30:51;;;;;;;15.15;11.23;;;;;;;17.65;100.00;101546.00;5043905;28;20154;-77
2022/07/24 01:33:17;;;;;;;15.40;11.27;;;;;;;17.56;100.00;101544.13;5060941;28;20368;-76
2022/07/24 01:35:42;;;;;;;16.92;11.25;;;;;;;17.60;100.00;101542.81;5058034;28;20048;-76
2022/07/24 01:38:09;;;;;;;20.38;11.70;;;;;;;17.53;100.00;101544.44;5094819;28;20032;-77
2022/07/24 01:40:36;;;;;;;15.93;11.27;;;;;;;17.42;100.00;101539.97;5075437;28;20379;-76
2022/07/24 01:43:03;;;;;;;19.98;11.93;;;;;;;17.39;100.00;101534.72;5057961;28;20036;-76
2022/07/24 01:45:28;;;;;;;18.17;12.05;;;;;;;17.36;100.00;101529.47;5072477;28;20434;-76
2022/07/24 01:47:53;;;;;;;15.82;11.45;;;;;;;17.37;100.00;101532.09;5092699;28;20114;-76
2022/07/24 01:50:19;;;;;;;18.98;11.50;;;;;;;17.32;100.00;101525.28;5039401;28;20037;-76
2022/07/24 01:52:45;;;;;;;16.65;11.50;;;;;;;17.32;100.00;101528.06;5087961;28;20035;-77
2022/07/24 01:55:11;;;;;;;22.60;11.55;;;;;;;17.36;100.00;101513.72;5058179;28;20070;-76
2022/07/24 01:57:36;;;;;;;19.52;12.05;;;;;;;17.46;100.00;101516.47;5093925;28;20050;-77
2022/07/24 02:00:05;;;;;;;18.63;10.48;;;;;;;17.47;100.00;101521.00;5042832;28;20556;-76
2022/07/24 02:02:31;;;;;;;16.38;11.40;;;;;;;17.47;100.00;101515.47;5094842;28;20043;-76
2022/07/24 02:04:56;;;;;;;19.10;12.27;;;;;;;17.52;100.00;101515.88;5092914;28;20036;-76
2022/07/24 02:07:22;;;;;;;21.98;11.10;;;;;;;17.52;100.00;101517.78;5092596;28;20069;-76
2022/07/24 02:09:47;;;;;;;17.85;10.88;;;;;;;17.50;100.00;101511.53;5075744;28;20070;-76
2022/07/24 02:12:13;;;;;;;19.85;11.25;;;;;;;17.39;100.00;101516.22;5093677;28;20068;-76
2022/07/24 02:14:38;;;;;;;17.23;12.05;;;;;;;17.53;100.00;101512.09;5075210;28;20040;-76
2022/07/24 02:17:04;;;;;;;16.30;11.20;;;;;;;17.47;100.00;101512.69;5055525;28;20453;-76
2022/07/24 02:19:30;;;;;;;15.85;11.50;;;;;;;17.54;100.00;101513.81;5073215;28;20031;-76
2022/07/24 02:21:55;;;;;;;17.00;11.85;;;;;;;17.54;100.00;101515.72;5094095;28;20028;-77
2022/07/24 02:24:22;;;;;;;19.90;12.25;;;;;;;17.44;100.00;101513.00;5075442;28;20483;-76
2022/07/24 02:26:48;;;;;;;17.42;11.15;;;;;;;17.43;100.00;101506.59;5089588;28;20111;-76
2022/07/24 02:29:14;;;;;;;17.13;12.27;;;;;;;17.36;100.00;101518.41;5035100;28;20040;-77
2022/07/24 02:31:39;;;;;;;17.17;12.50;;;;;;;17.26;100.00;101512.88;5074007;28;20479;-77
2022/07/24 02:34:05;;;;;;;19.20;12.27;;;;;;;17.24;100.00;101517.72;5071167;28;20031;-77
2022/07/24 02:36:30;;;;;;;17.75;11.82;;;;;;;17.34;100.00;101518.56;5059115;28;20039;-77
2022/07/24 02:38:56;;;;;;;16.15;12.38;;;;;;;17.34;100.00;101515.78;5074732;28;20039;-77
2022/07/24 02:41:21;;;;;;;19.98;12.57;;;;;;;17.36;100.00;101524.81;5066376;28;20036;-77
2022/07/24 02:43:47;;;;;;;20.67;12.98;;;;;;;17.32;100.00;101512.31;5042315;28;20067;-77
2022/07/24 02:46:12;;;;;;;19.13;12.20;;;;;;;17.36;100.00;101515.63;5058143;28;20070;-76
2022/07/24 02:48:38;;;;;;;20.48;12.23;;;;;;;17.35;100.00;101506.47;5072531;28;20051;-77
2022/07/24 02:51:04;;;;;;;18.25;12.05;;;;;;;17.38;100.00;101516.34;5073870;28;20099;-77
2022/07/24 02:53:29;;;;;;;21.42;12.73;;;;;;;17.36;100.00;101510.09;5074380;28;20051;-77
2022/07/24 02:55:55;;;;;;;15.77;11.68;;;;;;;17.36;100.00;101519.28;5069014;28;20099;-77
2022/07/24 02:58:20;;;;;;;16.80;12.00;;;;;;;17.28;100.00;101513.59;5074723;28;20043;-77
2022/07/24 03:00:46;;;;;;;18.02;12.20;;;;;;;17.31;100.00;101509.69;5067299;28;20028;-77
2022/07/24 03:03:11;;;;;;;18.70;12.07;;;;;;;17.31;100.00;101510.53;5074357;28;20051;-77
2022/07/24 03:05:37;;;;;;;19.85;12.40;;;;;;;17.26;100.00;101504.59;5056395;28;20048;-77
2022/07/24 03:08:03;;;;;;;24.13;12.80;;;;;;;17.33;100.00;101508.53;5054724;28;20036;-77
2022/07/24 03:10:28;;;;;;;19.67;12.27;;;;;;;17.36;100.00;101507.34;5084448;28;20043;-76
2022/07/24 03:12:54;;;;;;;25.33;12.43;;;;;;;17.33;100.00;101505.75;5058136;28;20032;-77
2022/07/24 03:15:20;;;;;;;18.95;12.63;;;;;;;17.29;100.00;101504.28;5067387;28;20039;-76
2022/07/24 03:17:51;;;;;;;16.25;12.65;;;;;;;17.26;100.00;101510.13;5057260;28;20039;-76
2022/07/24 03:20:17;;;;;;;18.48;13.13;;;;;;;17.27;100.00;101503.56;5041800;28;20603;-76
2022/07/24 03:22:46;;;;;;;23.30;13.65;;;;;;;17.15;100.00;101499.22;5092856;28;20059;-76
2022/07/24 03:25:12;;;;;;;18.67;13.30;;;;;;;17.16;100.00;101506.50;5075260;28;20186;-77
2022/07/24 03:27:37;;;;;;;17.80;13.35;;;;;;;17.12;100.00;101505.06;5068376;28;20131;-77
2022/07/24 03:30:04;;;;;;;20.77;13.93;;;;;;;17.11;100.00;101509.72;5069987;28;20052;-77
2022/07/24 03:32:30;;;;;;;22.20;13.55;;;;;;;17.01;100.00;101498.66;5064328;28;20044;-77
2022/07/24 03:34:55;;;;;;;24.08;13.68;;;;;;;17.06;100.00;101509.28;5050267;28;20032;-78
2022/07/24 03:37:21;;;;;;;20.65;14.45;;;;;;;17.01;100.00;101506.97;5073484;28;20036;-77
2022/07/24 03:39:46;;;;;;;19.20;14.00;;;;;;;17.02;100.00;101508.72;5065204;28;20107;-77
2022/07/24 03:42:12;;;;;;;21.33;13.48;;;;;;;16.97;100.00;101502.75;5054909;28;20468;-77
2022/07/24 03:44:37;;;;;;;18.55;13.63;;;;;;;17.05;100.00;101513.06;5084797;28;20097;-77
2022/07/24 03:47:03;;;;;;;19.92;13.98;;;;;;;16.99;100.00;101509.00;5089415;28;20119;-77
2022/07/24 03:49:28;;;;;;;26.05;13.93;;;;;;;17.04;100.00;101514.13;5090335;28;20047;-77
2022/07/24 03:51:54;;;;;;;18.92;13.27;;;;;;;17.07;100.00;101517.44;5055044;28;20086;-77
2022/07/24 03:54:19;;;;;;;19.27;14.48;;;;;;;17.05;100.00;101513.97;5040345;28;20037;-78
2022/07/24 03:56:45;;;;;;;24.40;14.68;;;;;;;17.07;100.00;101514.69;5059016;28;20542;-77
2022/07/24 03:59:10;;;;;;;23.73;14.55;;;;;;;17.08;100.00;101515.53;5092910;28;20483;-77
2022/07/24 04:01:36;;;;;;;23.33;14.38;;;;;;;17.05;100.00;101521.38;5055902;28;20043;-77
2022/07/24 04:04:04;;;;;;;21.88;15.15;;;;;;;17.00;100.00;101520.94;5090922;28;20120;-77
2022/07/24 04:06:31;;;;;;;18.92;14.18;;;;;;;17.12;100.00;101510.59;5057467;28;20082;-77
2022/07/24 04:08:57;;;;;;;22.70;14.98;;;;;;;17.05;100.00;101525.03;5086601;28;20044;-76
2022/07/24 04:11:22;;;;;;;24.08;14.40;;;;;;;17.02;100.00;101508.72;5071090;28;20369;-77
2022/07/24 04:13:48;;;;;;;22.42;15.70;;;;;;;17.01;100.00;101514.41;5057796;28;20060;-77
2022/07/24 04:16:13;;;;;;;29.48;15.70;;;;;;;17.03;100.00;101513.22;5073581;28;20058;-77
2022/07/24 04:18:39;;;;;;;23.95;15.63;;;;;;;17.12;100.00;101505.94;5074559;28;20123;-77
2022/07/24 04:21:04;;;;;;;28.80;15.07;;;;;;;17.05;100.00;101502.00;5069319;28;20115;-76
2022/07/24 04:23:30;;;;;;;29.92;15.32;;;;;;;17.08;100.00;101505.34;5074477;28;20068;-77
2022/07/24 04:25:56;;;;;;;21.45;14.65;;;;;;;17.23;100.00;101507.66;5071630;28;20558;-77
2022/07/24 04:28:22;;;;;;;26.25;15.75;;;;;;;17.18;100.00;101505.31;5075142;28;20069;-77
2022/07/24 04:30:47;;;;;;;24.55;15.38;;;;;;;17.21;100.00;101506.94;5056246;28;20392;-77
2022/07/24 04:33:13;;;;;;;23.75;16.40;;;;;;;17.13;100.00;101498.50;5074335;28;20041;-77
2022/07/24 04:35:38;;;;;;;24.63;15.95;;;;;;;17.26;100.00;101499.91;5054817;28;20538;-76
2022/07/24 04:38:04;;;;;;;21.10;15.43;;;;;;;17.28;100.00;101502.53;5075995;28;20070;-76
2022/07/24 04:40:29;;;;;;;26.77;15.25;;;;;;;17.33;100.00;101497.44;5074727;28;20033;-76
2022/07/24 04:42:55;;;;;;;26.45;17.17;;;;;;;17.46;100.00;101508.16;5073419;28;20037;-77
2022/07/24 04:45:21;;;;;;;25.90;16.48;;;;;;;17.49;100.00;101516.19;5073102;28;20064;-78
2022/07/24 04:47:46;;;;;;;31.23;15.93;;;;;;;17.40;100.00;101526.28;5075546;28;20036;-77
2022/07/24 04:50:12;;;;;;;30.13;15.73;;;;;;;17.38;100.00;101520.03;5074116;28;20550;-78
2022/07/24 04:52:37;;;;;;;25.88;16.85;;;;;;;17.28;100.00;101527.44;5066414;28;20151;-78
2022/07/24 04:55:03;;;;;;;22.45;16.48;;;;;;;17.39;100.00;101531.94;5061399;28;20068;-78
2022/07/24 04:57:29;;;;;;;29.83;16.95;;;;;;;17.38;100.00;101533.84;5075898;28;20029;-78
2022/07/24 04:59:55;;;;;;;27.08;16.92;;;;;;;17.43;100.00;101541.69;5073660;28;20036;-77
2022/07/24 05:02:20;;;;;;;27.10;16.55;;;;;;;17.47;100.00;101534.84;5056028;28;20563;-77
2022/07/24 05:04:46;;;;;;;23.17;14.93;;;;;;;17.62;100.00;101540.78;5074434;28;20112;-77
2022/07/24 05:07:11;;;;;;;26.30;17.35;;;;;;;17.60;100.00;101529.84;5074051;28;20097;-77
2022/07/24 05:09:37;;;;;;;33.45;17.75;;;;;;;17.56;100.00;101530.28;5074544;28;20032;-77
2022/07/24 05:12:02;;;;;;;27.05;17.45;;;;;;;17.72;100.00;101533.28;5053887;28;20072;-77
2022/07/24 05:14:28;;;;;;;34.10;18.98;;;;;;;17.75;100.00;101535.75;5073565;28;20040;-77
2022/07/24 05:16:53;;;;;;;27.92;18.67;;;;;;;17.86;100.00;101534.72;5065917;28;20123;-76
2022/07/24 05:19:19;;;;;;;33.97;19.50;;;;;;;17.83;100.00;101535.88;5069552;28;20075;-77
2022/07/24 05:21:44;;;;;;;32.80;19.60;;;;;;;17.98;100.00;101529.88;5073065;28;20945;-77
2022/07/24 05:24:10;;;;;;;29.88;19.58;;;;;;;18.06;100.00;101529.97;5074693;28;20047;-76
2022/07/24 05:26:36;;;;;;;34.10;19.35;;;;;;;18.12;100.00;101540.44;5073817;28;20032;-77
2022/07/24 05:29:03;;;;;;;33.28;20.02;;;;;;;18.29;100.00;101535.09;5074542;28;20032;-77
2022/07/24 05:31:29;;;;;;;35.95;21.40;;;;;;;18.32;100.00;101534.78;5084636;28;20051;-77
2022/07/24 05:33:54;;;;;;;32.83;22.40;;;;;;;18.40;100.00;101536.75;5054940;28;20036;-77
2022/07/24 05:36:20;;;;;;;29.83;21.92;;;;;;;18.41;100.00;101531.06;5070783;28;20067;-77
2022/07/24 05:38:47;;;;;;;38.15;23.50;;;;;;;18.78;100.00;101535.63;5072781;28;20097;-77
2022/07/24 05:41:13;;;;;;;33.63;23.00;;;;;;;18.81;100.00;101534.44;5068090;28;20114;-77
2022/07/24 05:43:39;;;;;;;37.60;22.38;;;;;;;19.13;100.00;101538.56;5061723;28;20041;-77
2022/07/24 05:46:05;;;;;;;36.92;23.58;;;;;;;19.19;100.00;101540.69;5072271;28;20085;-77
2022/07/24 05:48:31;;;;;;;43.00;24.73;;;;;;;19.37;100.00;101535.09;5053449;28;20434;-76
2022/07/24 05:50:57;;;;;;;38.58;24.00;;;;;;;19.24;100.00;101533.63;5065770;28;20040;-77
2022/07/24 05:53:23;;;;;;;39.83;25.35;;;;;;;19.56;100.00;101525.66;5050644;28;20057;-76
2022/07/24 05:55:49;;;;;;;38.75;24.52;;;;;;;19.64;100.00;101525.72;5069652;28;20040;-76
2022/07/24 05:58:14;;;;;;;40.60;25.33;;;;;;;20.04;100.00;101531.69;5065203;28;20438;-76
2022/07/24 06:00:40;;;;;;;38.78;24.55;;;;;;;20.35;100.00;101532.84;5064910;28;20089;-76
2022/07/24 06:03:06;;;;;;;43.05;23.58;;;;;;;19.96;100.00;101532.53;5070671;28;20040;-75
2022/07/24 06:05:31;;;;;;;38.65;24.95;;;;;;;20.33;100.00;101539.63;5069205;28;20568;-76
2022/07/24 06:07:57;;;;;;;37.13;23.13;;;;;;;20.59;100.00;101539.50;5067756;28;20036;-75
2022/07/24 06:10:22;;;;;;;43.95;22.80;;;;;;;20.24;100.00;101535.94;5054543;28;20041;-77
2022/07/24 06:12:48;;;;;;;36.88;22.38;;;;;;;20.59;100.00;101536.72;5071538;28;20028;-77
2022/07/24 06:15:14;;;;;;;32.80;21.60;;;;;;;20.63;100.00;101540.03;5052688;28;20037;-76
2022/07/24 06:17:40;;;;;;;40.33;22.67;;;;;;;21.04;100.00;101538.22;5065568;28;20028;-77
2022/07/24 06:20:08;;;;;;;38.40;21.80;;;;;;;21.29;100.00;101555.78;5071908;28;20028;-77
2022/07/24 06:22:35;;;;;;;35.65;20.70;;;;;;;21.42;100.00;101552.47;5072801;28;20028;-76
2022/07/24 06:25:01;;;;;;;33.65;19.58;;;;;;;21.79;100.00;101551.03;5052842;28;20044;-77
2022/07/24 06:27:27;;;;;;;31.10;20.20;;;;;;;22.11;100.00;101551.09;5064233;28;20033;-77
2022/07/24 06:29:52;;;;;;;32.15;19.65;;;;;;;21.45;100.00;101556.81;5065915;28;20080;-77
2022/07/24 06:32:18;;;;;;;32.85;18.05;;;;;;;21.78;100.00;101560.44;5068106;28;20040;-77
2022/07/24 06:34:43;;;;;;;28.73;17.08;;;;;;;21.82;100.00;101561.84;5090815;28;20032;-77
2022/07/24 06:37:09;;;;;;;26.15;17.20;;;;;;;22.01;100.00;101565.25;5036816;28;20529;-77
2022/07/24 06:39:34;;;;;;;26.48;16.27;;;;;;;21.66;100.00;101559.94;5075283;28;20435;-77
2022/07/24 06:42:00;;;;;;;28.75;16.77;;;;;;;22.21;100.00;101562.91;5073953;28;20527;-77
2022/07/24 06:44:26;;;;;;;26.05;15.75;;;;;;;22.63;100.00;101558.91;5066483;28;20036;-77
2022/07/24 06:46:52;;;;;;;31.67;16.05;;;;;;;22.99;100.00;101557.41;5054688;28;20047;-77
2022/07/24 06:49:17;;;;;;;22.77;15.45;;;;;;;22.68;100.00;101553.63;5059568;28;20059;-77
2022/07/24 06:51:43;;;;;;;24.38;16.23;;;;;;;22.28;100.00;101561.13;5060238;28;20385;-77
2022/07/24 06:54:09;;;;;;;22.80;15.23;;;;;;;22.93;100.00;101562.69;5075709;28;20455;-77
2022/07/24 06:56:34;;;;;;;32.00;16.65;;;;;;;23.46;100.00;101556.34;5088974;28;20779;-77
2022/07/24 06:59:00;;;;;;;27.73;17.13;;;;;;;23.54;100.00;101561.84;5057633;28;20063;-77
2022/07/24 07:01:26;;;;;;;29.58;18.38;;;;;;;22.92;100.00;101555.38;5039636;28;20060;-77
2022/07/24 07:03:53;;;;;;;26.55;17.67;;;;;;;23.04;100.00;101552.16;5056260;28;20062;-77
2022/07/24 07:06:18;;;;;;;26.40;17.67;;;;;;;23.42;100.00;101558.66;5086202;28;20044;-77
2022/07/24 07:08:44;;;;;;;23.58;16.95;;;;;;;23.74;100.00;101569.69;5090358;28;20028;-77
2022/07/24 07:11:09;;;;;;;25.63;16.88;;;;;;;23.56;100.00;101553.28;5079022;28;20070;-77
2022/07/24 07:13:35;;;;;;;30.85;17.15;;;;;;;23.59;100.00;101559.34;5093098;28;20522;-77
2022/07/24 07:16:01;;;;;;;26.38;15.93;;;;;;;23.93;100.00;101555.19;5073906;28;20123;-77
2022/07/24 07:18:26;;;;;;;26.98;16.13;;;;;;;24.77;94.88;101563.16;5091806;28;20080;-77
2022/07/24 07:20:53;;;;;;;28.80;16.40;;;;;;;24.27;96.20;101561.22;5071760;28;20491;-77
2022/07/24 07:23:23;;;;;;;25.38;16.42;;;;;;;24.31;97.13;101554.19;5058228;28;20409;-77
2022/07/24 07:25:49;;;;;;;27.92;15.98;;;;;;;23.85;100.00;101553.34;5089777;28;20039;-77
2022/07/24 07:28:15;;;;;;;21.25;15.73;;;;;;;24.37;97.99;101550.63;5074237;28;20036;-77
2022/07/24 07:30:40;;;;;;;26.73;16.35;;;;;;;24.41;95.93;101543.53;5070101;28;20075;-77
2022/07/24 07:33:06;;;;;;;22.08;15.18;;;;;;;24.86;95.32;101551.84;5064067;28;20564;-77
2022/07/24 07:35:31;;;;;;;23.48;16.38;;;;;;;25.21;92.14;101549.19;5061176;28;20041;-78
2022/07/24 07:37:57;;;;;;;29.17;17.75;;;;;;;25.52;89.83;101553.59;5069687;28;20056;-77
2022/07/24 07:40:24;;;;;;;26.25;15.85;;;;;;;25.78;91.23;101555.72;5052244;28;20082;-78
2022/07/24 07:42:50;;;;;;;34.72;17.38;;;;;;;25.20;91.70;101551.09;5070140;28;20036;-77
2022/07/24 07:45:15;;;;;;;31.65;16.83;;;;;;;25.19;93.07;101555.00;5068938;28;20032;-77
2022/07/24 07:47:41;;;;;;;25.13;17.10;;;;;;;25.24;93.08;101540.38;5069112;28;20163;-77
2022/07/24 07:50:07;;;;;;;25.70;17.67;;;;;;;25.65;90.15;101543.31;5072303;28;20097;-78
2022/07/24 07:52:33;;;;;;;29.27;19.42;;;;;;;25.12;92.09;101540.91;5072681;28;20069;-78
2022/07/24 07:54:58;;;;;;;29.10;18.48;;;;;;;25.35;92.03;101539.88;5061056;28;20458;-78
2022/07/24 07:57:23;;;;;;;54.08;19.67;;;;;;;25.35;91.08;101542.66;5061651;28;20035;-78
2022/07/24 07:59:49;;;;;;;26.58;17.60;;;;;;;26.07;87.59;101546.19;5071508;28;20036;-79
2022/07/24 08:02:15;;;;;;;24.20;17.50;;;;;;;26.13;86.84;101544.50;5053420;28;20083;-78
2022/07/24 08:04:41;;;;;;;23.02;15.95;;;;;;;26.26;85.05;101547.38;5053539;28;20055;-79
2022/07/24 08:07:07;;;;;;;26.83;17.13;;;;;;;25.82;86.15;101545.81;5072566;28;20369;-78
2022/07/24 08:09:33;;;;;;;24.30;14.73;;;;;;;26.17;84.43;101552.31;5074672;28;20111;-77
2022/07/24 08:11:58;;;;;;;26.05;15.45;;;;;;;26.42;82.48;101547.00;5072149;28;20037;-78
2022/07/24 08:14:24;;;;;;;27.25;15.80;;;;;;;26.47;81.07;101548.34;5074417;28;20052;-79
2022/07/24 08:16:50;;;;;;;23.80;15.23;;;;;;;26.32;82.06;101540.06;5056477;28;20100;-78
2022/07/24 08:19:16;;;;;;;20.27;13.65;;;;;;;27.16;79.75;101547.22;5076726;28;20043;-78
2022/07/24 08:21:42;;;;;;;27.38;14.88;;;;;;;26.64;79.58;101543.22;5042317;28;20119;-78
2022/07/24 08:24:08;;;;;;;23.10;13.32;;;;;;;25.92;81.92;101532.25;5055629;28;20136;-78
2022/07/24 08:26:33;;;;;;;26.48;12.70;;;;;;;27.03;78.98;101544.41;5064879;28;20471;-78
2022/07/24 08:28:59;;;;;;;18.10;10.68;;;;;;;27.31;77.82;101531.03;5073014;28;20036;-78
2022/07/24 08:31:28;;;;;;;23.77;10.52;;;;;;;27.11;77.71;101532.94;5078002;28;20442;-78
2022/07/24 08:33:53;;;;;;;22.77;11.60;;;;;;;26.48;78.81;101538.81;5077284;28;20037;-78
2022/07/24 08:36:19;;;;;;;18.05;10.30;;;;;;;25.78;82.49;101536.06;5051178;28;20047;-77
2022/07/24 08:38:44;;;;;;;25.45;10.23;;;;;;;25.84;83.45;101533.31;5057185;28;20371;-77
2022/07/24 08:41:10;;;;;;;13.63;9.07;;;;;;;26.01;78.90;101531.06;5068374;28;20024;-78
2022/07/24 08:43:35;;;;;;;11.23;7.88;;;;;;;25.85;78.54;101535.03;5074218;28;20428;-77
2022/07/24 08:46:03;;;;;;;13.45;8.98;;;;;;;25.46;83.96;101530.00;5077911;28;20036;-79
2022/07/24 08:48:30;;;;;;;14.25;8.52;;;;;;;26.19;80.49;101533.31;5078209;28;20028;-79
2022/07/24 08:50:58;;;;;;;13.73;8.50;;;;;;;26.78;78.19;101530.97;5076829;28;20033;-78
2022/07/24 08:53:24;;;;;;;15.52;9.43;;;;;;;26.99;75.95;101532.72;5076818;28;20396;-79
2022/07/24 08:55:50;;;;;;;16.65;8.98;;;;;;;27.52;72.60;101540.34;5059579;28;20040;-79
2022/07/24 08:58:16;;;;;;;15.38;7.55;;;;;;;26.88;72.70;101525.78;5078672;28;20035;-79
2022/07/24 09:00:41;;;;;;;12.23;6.75;;;;;;;27.05;72.48;101540.28;5077686;28;20112;-78
2022/07/24 09:03:07;;;;;;;11.82;7.25;;;;;;;27.37;72.45;101526.50;5089853;28;20385;-79
2022/07/24 09:05:36;;;;;;;10.48;6.03;;;;;;;27.79;70.78;101527.06;5067526;28;20048;-79
2022/07/24 09:08:14;;;;;;;10.23;5.97;;;;;;;28.12;67.78;101533.75;5048145;28;20029;-79
2022/07/24 09:10:39;;;;;;;7.20;5.45;;;;;;;27.68;67.78;101531.44;5058624;28;20044;-79
2022/07/24 09:13:16;;;;;;;8.50;5.88;;;;;;;27.76;69.51;101518.22;5052755;28;20040;-78
2022/07/24 09:15:47;;;;;;;6.57;5.00;;;;;;;27.97;69.03;101526.41;5071991;28;20055;-77
2022/07/24 09:18:32;;;;;;;4.03;3.35;;;;;;;27.88;65.46;101514.50;5071678;28;20519;-78
2022/07/24 09:20:59;;;;;;;5.38;4.00;;;;;;;27.64;67.08;101507.63;5074981;28;20032;-78
2022/07/24 09:23:25;;;;;;;9.73;3.78;;;;;;;28.24;64.56;101510.31;5078334;28;20035;-78
2022/07/24 09:25:52;;;;;;;5.28;4.00;;;;;;;28.33;66.39;101512.88;5075861;28;20448;-78
2022/07/24 09:28:19;;;;;;;9.43;4.50;;;;;;;28.92;61.54;101510.81;5070783;28;20074;-78
2022/07/24 09:30:47;;;;;;;17.60;2.88;;;;;;;28.46;61.37;101512.78;5081114;28;20049;-78
2022/07/24 09:33:13;;;;;;;5.15;3.60;;;;;;;28.71;61.68;101507.28;5093851;28;20046;-77
2022/07/24 09:35:43;;;;;;;7.10;3.15;;;;;;;29.04;58.34;101514.66;5072302;28;20392;-79
2022/07/24 09:38:20;;;;;;;6.40;2.75;;;;;;;29.00;61.59;101509.69;5091741;28;20032;-78
2022/07/24 09:40:54;;;;;;;7.53;3.65;;;;;;;29.05;60.32;101509.84;5059705;28;20028;-80
2022/07/24 09:43:27;;;;;;;5.50;3.00;;;;;;;28.77;60.38;101497.91;5054846;28;20044;-80
2022/07/24 09:45:53;;;;;;;4.60;2.10;;;;;;;29.91;56.45;101496.06;5086999;28;20028;-79
2022/07/24 09:48:21;;;;;;;4.47;2.55;;;;;;;29.43;55.12;101495.66;5072490;28;20111;-80
2022/07/24 09:50:52;;;;;;;5.63;2.50;;;;;;;29.46;56.39;101497.16;5062731;28;20028;-79
2022/07/24 09:53:19;;;;;;;3.05;1.70;;;;;;;29.49;55.99;101489.09;5061866;28;20040;-80
2022/07/24 09:55:57;;;;;;;2.13;1.92;;;;;;;29.75;54.61;101487.09;5075647;28;20059;-79
2022/07/24 09:58:23;;;;;;;3.00;1.60;;;;;;;29.25;55.80;101490.81;5077602;28;20032;-79
2022/07/24 10:00:49;;;;;;;3.63;1.98;;;;;;;29.19;55.96;101486.13;5061278;28;20117;-79
2022/07/24 10:03:18;;;;;;;2.00;1.60;;;;;;;29.62;53.87;101479.63;5074544;28;20027;-79
2022/07/24 10:05:46;;;;;;;4.45;2.00;;;;;;;30.15;54.62;101480.97;5091605;28;20387;-79
2022/07/24 10:08:14;;;;;;;4.75;2.00;;;;;;;29.72;55.03;101481.91;5055733;28;20043;-79
2022/07/24 10:10:44;;;;;;;4.18;1.70;;;;;;;29.86;52.56;101480.69;5061021;28;20031;-80
2022/07/24 10:13:10;;;;;;;1.80;1.70;;;;;;;29.42;56.00;101478.97;5095534;28;20063;-79
2022/07/24 10:15:50;;;;;;;3.17;1.52;;;;;;;29.83;53.61;101467.06;5063429;28;20036;-79
2022/07/24 10:18:17;;;;;;;3.50;1.67;;;;;;;29.98;55.29;101471.44;5077351;28;20027;-80
2022/07/24 10:20:45;;;;;;;4.53;1.55;;;;;;;29.96;54.32;101482.09;5095879;28;20059;-79
2022/07/24 10:23:25;;;;;;;3.45;1.67;;;;;;;29.52;52.37;101470.84;5094725;28;20444;-81
2022/07/24 10:25:53;;;;;;;6.45;1.70;;;;;;;29.79;55.93;101470.56;5059273;28;20051;-80
2022/07/24 10:28:38;;;;;;;2.78;1.63;;;;;;;30.16;52.28;101462.94;5068550;28;20032;-80
2022/07/24 10:31:06;;;;;;;4.88;1.80;;;;;;;29.64;52.88;101462.47;5072615;28;20060;-79
2022/07/24 10:33:32;;;;;;;3.08;1.65;;;;;;;29.97;54.70;101458.41;5077826;28;20044;-79
2022/07/24 10:36:03;;;;;;;7.47;1.58;;;;;;;30.31;51.99;101462.53;5077571;28;20051;-79
2022/07/24 10:38:41;;;;;;;10.88;1.60;;;;;;;30.02;53.92;101464.22;5091361;28;20093;-79
2022/07/24 10:41:14;;;;;;;4.75;1.42;;;;;;;29.96;53.89;101457.56;5059665;28;20095;-80
2022/07/24 10:43:40;;;;;;;4.93;1.52;;;;;;;30.46;51.56;101450.81;5060912;28;20036;-80
2022/07/24 10:46:05;;;;;;;4.47;1.50;;;;;;;30.06;51.81;101457.00;5095345;28;20372;-79
2022/07/24 10:48:35;;;;;;;2.58;1.42;;;;;;;30.24;52.52;101444.81;5076719;28;20092;-80
2022/07/24 10:51:16;;;;;;;2.92;1.38;;;;;;;29.94;55.68;101445.66;5060832;28;20453;-80
2022/07/24 10:53:46;;;;;;;3.97;1.60;;;;;;;30.18;53.92;101440.97;5088559;28;20363;-81
2022/07/24 10:56:38;;;;;;;5.32;1.63;;;;;;;31.10;50.52;101436.13;5061732;28;20028;-81
2022/07/24 10:59:12;;;;;;;1.70;1.45;;;;;;;30.44;53.43;101435.22;5061957;28;20036;-80
2022/07/24 11:01:50;;;;;;;3.97;1.50;;;;;;;30.86;52.39;101421.94;5059376;28;20016;-80
2022/07/24 11:04:19;;;;;;;7.45;1.20;;;;;;;30.77;51.98;101423.38;5058339;28;20040;-81